Time;durP1;ratioP1;P1;durP2;ratioP2;P2;SDS_P1;SDS_P2;PMS_P1;PMS_P2;Temp;Humidity;BMP_temperature;BMP_pressure;BME280_temperature;BME280_humidity;BME280_pressure;Samples;Min_cycle;Max_cycle;Signal;HPM_P1;HPM_P2
2021/05/18 00:00:29;;;;;;;;;;;;;;;19.72;65.23;98733.28;5091986;28;20610;-39
2021/05/18 00:02:55;;;;;;;;;;;;;;;19.69;64.95;98727.63;5091994;28;20753;-37
2021/05/18 00:05:20;;;;;;;;;;;;;;;19.61;65.50;98723.69;5092463;28;19913;-39
2021/05/18 00:07:54;;;;;;;;;;;;;;;19.72;64.96;98732.47;5092136;28;20353;-37
2021/05/18 00:13:03;;;;;;;;;;;;;;;19.87;64.90;98736.88;5091614;28;19926;-38
2021/05/18 00:15:28;;;;;;;;;;;;;;;19.70;64.98;98729.22;5091816;28;19920;-38
2021/05/18 00:17:53;;;;;;;;;;;;;;;19.54;65.22;98728.59;5091873;28;19916;-39
2021/05/18 00:20:19;;;;;;;;;;;;;;;19.41;66.16;98727.38;5091607;28;19997;-37
2021/05/18 00:22:44;;;;;;;;;;;;;;;19.73;64.95;98734.88;5091993;28;19970;-38
2021/05/18 00:25:10;;;;;;;;;;;;;;;19.71;65.50;98738.94;5091769;28;19951;-38
2021/05/18 00:27:35;;;;;;;;;;;;;;;19.88;64.94;98738.50;5091502;28;20459;-37
2021/05/18 00:30:00;;;;;;;;;;;;;;;19.98;64.92;98745.66;5092150;28;19918;-38
2021/05/18 00:32:26;;;;;;;;;;;;;;;20.14;64.29;98759.75;5092020;28;19922;-38
2021/05/18 00:34:56;;;;;;;;;;;;;;;20.15;64.33;98761.38;5092053;28;19912;-38
2021/05/18 00:37:21;;;;;;;;;;;;;;;20.20;63.91;98772.94;5091775;28;20387;-38
2021/05/18 00:39:47;;;;;;;;;;;;;;;20.12;64.02;98765.44;5091897;28;19912;-39
2021/05/18 00:42:13;;;;;;;;;;;;;;;20.18;64.22;98779.69;5091966;28;19912;-38
2021/05/18 00:44:38;;;;;;;;;;;;;;;20.17;63.92;98781.59;5091970;28;19935;-38
2021/05/18 00:47:03;;;;;;;;;;;;;;;20.17;64.02;98776.19;5091968;28;20284;-39
2021/05/18 00:49:29;;;;;;;;;;;;;;;20.17;64.29;98781.59;5091821;28;19912;-39
2021/05/18 00:51:54;;;;;;;;;;;;;;;19.98;64.77;98775.38;5092046;28;20349;-38
2021/05/18 00:54:24;;;;;;;;;;;;;;;20.19;64.09;98771.31;5091589;28;19916;-39
2021/05/18 00:59:33;;;;;;;;;;;;;;;20.23;63.52;98776.94;5091072;28;19999;-39
2021/05/18 01:01:58;;;;;;;;;;;;;;;20.05;64.20;98797.44;5091415;28;20371;-39
2021/05/18 01:04:24;;;;;;;;;;;;;;;19.95;64.65;98781.34;5091891;28;19912;-39
2021/05/18 01:06:49;;;;;;;;;;;;;;;19.92;64.59;98780.03;5090441;28;20387;-39
2021/05/18 01:09:14;;;;;;;;;;;;;;;19.84;64.92;98807.66;5091706;28;19978;-38
2021/05/18 01:11:40;;;;;;;;;;;;;;;20.01;64.02;98808.00;5091604;28;20287;-38
2021/05/18 01:14:12;;;;;;;;;;;;;;;19.58;65.16;98812.50;5089790;28;19993;-39
2021/05/18 01:16:38;;;;;;;;;;;;;;;19.71;65.39;98819.91;5091657;28;19912;-39
2021/05/18 01:19:04;;;;;;;;;;;;;;;19.68;64.90;98820.47;5091632;28;19920;-39
2021/05/18 01:21:30;;;;;;;;;;;;;;;19.30;66.29;98818.38;5091683;28;20058;-39
2021/05/18 01:23:55;;;;;;;;;;;;;;;19.39;65.88;98833.97;5091408;28;19978;-39
2021/05/18 01:26:21;;;;;;;;;;;;;;;19.30;66.18;98850.75;5091105;28;20323;-39
2021/05/18 01:28:46;;;;;;;;;;;;;;;18.75;68.04;98840.09;5091499;28;19919;-39
2021/05/18 01:31:12;;;;;;;;;;;;;;;18.29;69.96;98834.13;5091214;28;19912;-39
2021/05/18 01:33:37;;;;;;;;;;;;;;;18.19;70.58;98834.19;5091270;28;19916;-40
2021/05/18 01:36:04;;;;;;;;;;;;;;;17.94;70.13;98827.81;5091232;28;20018;-39
2021/05/18 01:38:38;;;;;;;;;;;;;;;17.90;70.99;98849.06;5091339;28;19923;-39
2021/05/18 01:43:48;;;;;;;;;;;;;;;17.60;72.75;98839.16;5091271;28;19918;-39
2021/05/18 01:46:13;;;;;;;;;;;;;;;18.01;71.55;98830.19;5095216;28;19912;-39
2021/05/18 01:48:39;;;;;;;;;;;;;;;18.10;70.76;98815.88;5111501;28;20056;-39
2021/05/18 01:51:04;;;;;;;;;;;;;;;18.60;69.26;98828.56;5111574;28;20367;-39
2021/05/18 01:53:29;;;;;;;;;;;;;;;18.70;68.42;98828.53;5111415;28;19964;-39
2021/05/18 01:58:23;;;;;;;;;;;;;;;18.71;68.37;98840.91;5111855;28;19912;-38
2021/05/18 02:00:48;;;;;;;;;;;;;;;18.49;68.98;98815.19;5111551;28;19922;-39
2021/05/18 02:03:13;;;;;;;;;;;;;;;18.47;69.26;98828.13;5095306;28;19912;-39
2021/05/18 02:05:40;;;;;;;;;;;;;;;18.49;68.99;98822.47;5090873;28;20003;-39
2021/05/18 02:08:06;;;;;;;;;;;;;;;18.28;70.10;98835.22;5091250;28;19962;-38
2021/05/18 02:10:31;;;;;;;;;;;;;;;18.21;70.12;98848.16;5091426;28;19912;-38
2021/05/18 02:12:57;;;;;;;;;;;;;;;18.22;70.06;98853.28;5094044;28;20367;-38
2021/05/18 02:18:02;;;;;;;;;;;;;;;18.13;70.62;98869.19;5094759;28;19913;-38
2021/05/18 02:20:39;;;;;;;;;;;;;;;17.42;72.85;98867.41;5094720;28;19923;-39
2021/05/18 02:25:48;;;;;;;;;;;;;;;17.37;73.39;98873.59;5094713;28;19960;-38
2021/05/18 02:28:13;;;;;;;;;;;;;;;17.44;73.05;98873.34;5094320;28;19912;-38
2021/05/18 02:30:39;;;;;;;;;;;;;;;17.52;72.89;98886.22;5094415;28;19916;-38
2021/05/18 02:33:04;;;;;;;;;;;;;;;17.40;72.55;98883.00;5094321;28;19981;-38
2021/05/18 02:35:30;;;;;;;;;;;;;;;17.45;72.77;98876.81;5093986;28;19916;-38
2021/05/18 02:37:55;;;;;;;;;;;;;;;17.71;71.22;98891.06;5094357;28;19916;-38
2021/05/18 02:40:22;;;;;;;;;;;;;;;17.70;71.34;98895.63;5094421;28;19958;-38
2021/05/18 02:42:48;;;;;;;;;;;;;;;17.71;70.92;98891.06;5094240;28;19912;-38
2021/05/18 02:50:25;;;;;;;;;;;;;;;17.96;69.02;98903.69;5094165;28;20014;-38
2021/05/18 02:52:50;;;;;;;;;;;;;;;17.89;69.81;98895.88;5093846;28;20002;-38
2021/05/18 02:55:58;;;;;;;;;;;;;;;18.08;68.85;98893.44;5093904;28;20449;-38
2021/05/18 02:58:06;;;;;;;;;;;;;;;18.11;68.48;98897.47;5087888;28;19916;-38
2021/05/18 03:00:32;;;;;;;;;;;;;;;18.29;68.35;98896.84;5093973;28;19924;-38
2021/05/18 03:02:57;;;;;;;;;;;;;;;18.07;67.81;98905.28;5093527;28;20285;-38
2021/05/18 03:05:24;;;;;;;;;;;;;;;17.90;68.64;98910.97;5093517;28;20026;-38
2021/05/18 03:07:51;;;;;;;;;;;;;;;17.79;69.03;98910.13;5093816;28;19912;-39
2021/05/18 03:10:17;;;;;;;;;;;;;;;17.68;68.88;98902.34;5093501;28;19920;-39
2021/05/18 03:12:42;;;;;;;;;;;;;;;17.65;69.04;98895.66;5092990;28;20282;-39
2021/05/18 03:15:07;;;;;;;;;;;;;;;17.65;68.87;98889.44;5092337;28;19916;-38
2021/05/18 03:17:33;;;;;;;;;;;;;;;17.69;68.30;98887.84;5093559;28;19951;-39
2021/05/18 03:19:58;;;;;;;;;;;;;;;17.78;67.54;98891.56;5093400;28;20438;-38
2021/05/18 03:22:23;;;;;;;;;;;;;;;17.74;66.44;98894.03;5093445;28;19919;-39
2021/05/18 03:24:49;;;;;;;;;;;;;;;17.56;66.51;98902.63;5093282;28;20409;-38
2021/05/18 03:27:14;;;;;;;;;;;;;;;17.00;67.83;98909.59;5093120;28;19951;-40
2021/05/18 03:29:40;;;;;;;;;;;;;;;17.09;66.95;98909.06;5093176;28;19912;-39
2021/05/18 03:34:50;;;;;;;;;;;;;;;17.53;65.44;98922.78;5093339;28;19997;-38
2021/05/18 03:37:23;;;;;;;;;;;;;;;17.62;64.64;98931.16;5093228;28;19919;-38
2021/05/18 03:39:49;;;;;;;;;;;;;;;17.71;63.92;98947.56;5093501;28;19940;-38
2021/05/18 03:42:19;;;;;;;;;;;;;;;18.05;62.17;98952.38;5093288;28;19916;-38
2021/05/18 04:17:24;;;;;;;;;;;;;;;20.61;53.27;98964.25;5092759;28;19962;-38
2021/05/18 04:52:03;;;;;;;;;;;;;;;24.26;44.48;98957.38;5091484;28;19912;-38
2021/05/18 05:00:01;;;;;;;;;;;;;;;23.56;45.09;98954.22;5091059;28;19919;-38
2021/05/18 05:07:53;;;;;;;;;;;;;;;24.93;42.59;98989.75;5070806;28;19919;-39
2021/05/18 05:10:26;;;;;;;;;;;;;;;25.45;40.82;98988.22;5083662;28;20389;-38
2021/05/18 05:14:07;;;;;;;;;;;;;;;25.96;39.41;98988.53;5090633;28;20010;-36
2021/05/18 05:15:39;;;;;;;;;;;;;;;26.06;38.60;98978.06;5090451;28;19927;-40
2021/05/18 05:18:05;;;;;;;;;;;;;;;26.43;38.92;98981.16;5090821;28;19912;-38
2021/05/18 05:20:30;;;;;;;;;;;;;;;26.70;38.88;98976.41;5090279;28;20353;-38
2021/05/18 05:22:56;;;;;;;;;;;;;;;26.87;37.24;98978.25;5090312;28;19916;-38
2021/05/18 05:25:21;;;;;;;;;;;;;;;27.19;36.24;98971.28;5089186;28;19912;-38
2021/05/18 05:27:46;;;;;;;;;;;;;;;26.05;37.52;98971.03;5089322;28;19973;-38
2021/05/18 05:30:12;;;;;;;;;;;;;;;26.73;37.17;98973.00;5089912;28;19971;-38
2021/05/18 05:32:37;;;;;;;;;;;;;;;26.57;36.93;98969.22;5083155;28;19917;-38
2021/05/18 05:35:02;;;;;;;;;;;;;;;25.26;38.17;98980.38;5090214;28;19936;-38
2021/05/18 05:37:28;;;;;;;;;;;;;;;24.51;39.88;98978.44;5089098;28;20348;-38
2021/05/18 05:39:53;;;;;;;;;;;;;;;24.55;39.50;98993.00;5089718;28;19919;-38
2021/05/18 05:42:20;;;;;;;;;;;;;;;23.92;40.54;98992.19;5086976;28;19995;-38
2021/05/18 05:44:45;;;;;;;;;;;;;;;23.79;41.37;98998.50;5089441;28;21186;-38
2021/05/18 05:47:10;;;;;;;;;;;;;;;23.53;41.40;99009.13;5091136;28;19950;-36
2021/05/18 05:49:36;;;;;;;;;;;;;;;23.79;41.28;99018.31;5094562;28;19951;-39
2021/05/18 05:52:01;;;;;;;;;;;;;;;23.60;41.56;99020.38;5094089;28;20584;-38
2021/05/18 05:54:26;;;;;;;;;;;;;;;23.74;41.12;99012.97;5094195;28;19916;-37
2021/05/18 05:56:52;;;;;;;;;;;;;;;24.85;39.64;99025.13;5093867;28;19961;-38
2021/05/18 05:59:19;;;;;;;;;;;;;;;24.18;40.29;99018.72;5094218;28;19916;-38
2021/05/18 06:01:44;;;;;;;;;;;;;;;23.86;39.99;99025.25;5092683;28;19961;-48
2021/05/18 06:04:09;;;;;;;;;;;;;;;23.16;42.39;99030.84;5093545;28;19912;-49
2021/05/18 06:06:35;;;;;;;;;;;;;;;23.67;40.96;99036.25;5091677;28;19980;-50
2021/05/18 06:09:00;;;;;;;;;;;;;;;23.45;41.57;99026.94;5091729;28;19916;-49
2021/05/18 06:48:30;;;;;;;;;;;;;;;21.69;47.59;99044.03;5113178;28;20379;-53
2021/05/18 06:50:55;;;;;;;;;;;;;;;22.02;47.72;99050.25;5113461;28;19912;-52
2021/05/18 06:53:21;;;;;;;;;;;;;;;22.04;47.87;99045.34;5113105;28;19999;-52
2021/05/18 06:55:48;;;;;;;;;;;;;;;22.35;46.63;99050.28;5113321;28;19922;-52
2021/05/18 06:58:20;;;;;;;;;;;;;;;21.43;49.92;99054.38;5112607;28;19911;-50
2021/05/18 07:00:46;;;;;;;;;;;;;;;21.63;49.19;99039.78;5113136;28;19912;-52
2021/05/18 07:03:14;;;;;;;;;;;;;;;21.59;48.17;99041.44;5104836;28;19994;-54
2021/05/18 07:11:02;;;;;;;;;;;;;;;22.50;47.97;99045.69;5092718;28;19912;-50
2021/05/18 07:13:27;;;;;;;;;;;;;;;22.51;48.32;99042.69;5092640;28;19924;-53
2021/05/18 07:15:53;;;;;;;;;;;;;;;22.43;47.85;99040.66;5092403;28;19912;-50
2021/05/18 07:18:18;;;;;;;;;;;;;;;21.58;48.45;99043.34;5092286;28;19966;-52
2021/05/18 07:20:43;;;;;;;;;;;;;;;22.00;48.47;99048.94;5092868;28;20356;-49
2021/05/18 07:23:11;;;;;;;;;;;;;;;22.27;47.93;99047.44;5091109;28;20359;-49
2021/05/18 07:25:36;;;;;;;;;;;;;;;22.28;47.21;99046.34;5091776;28;19912;-51
2021/05/18 07:28:07;;;;;;;;;;;;;;;22.32;46.22;99040.03;5092239;28;20004;-37
2021/05/18 07:30:36;;;;;;;;;;;;;;;22.23;47.31;99039.88;5092383;28;20007;-38
2021/05/18 07:33:01;;;;;;;;;;;;;;;21.59;47.59;99039.56;5092271;28;20007;-38
2021/05/18 07:35:27;;;;;;;;;;;;;;;22.03;46.59;99027.50;5092086;28;19958;-38
2021/05/18 07:37:52;;;;;;;;;;;;;;;21.92;46.94;99034.19;5092154;28;19912;-38
2021/05/18 07:40:17;;;;;;;;;;;;;;;22.63;46.47;99032.13;5092077;28;19912;-38
2021/05/18 07:42:43;;;;;;;;;;;;;;;23.39;45.70;99039.03;5092151;28;19923;-38
2021/05/18 07:45:08;;;;;;;;;;;;;;;23.81;43.51;99042.44;5091236;28;20030;-38
2021/05/18 07:47:36;;;;;;;;;;;;;;;23.66;43.62;99040.06;5090502;28;19912;-38
2021/05/18 07:50:07;;;;;;;;;;;;;;;23.72;43.98;99031.50;5091936;28;20006;-38
2021/05/18 08:05:59;;;;;;;;;;;;;;;22.76;44.38;99083.97;5091990;28;19967;-39
2021/05/18 08:08:24;;;;;;;;;;;;;;;22.88;42.93;99078.06;5091912;28;19947;-36
2021/05/18 08:10:52;;;;;;;;;;;;;;;22.83;43.92;99087.91;5091747;28;20583;-37
2021/05/18 08:13:26;;;;;;;;;;;;;;;22.75;44.10;99087.78;5091560;28;19963;-39
2021/05/18 08:16:43;;;;;;;;;;;;;;;23.01;42.66;99088.91;5092191;28;19912;-36
2021/05/18 09:49:57;;;;;;;;;;;;;;;24.66;38.77;99139.63;5110422;28;19919;-38
2021/05/18 10:18:21;;;;;;;;;;;;;;;23.10;42.02;99105.31;5090013;28;19962;-38
2021/05/18 10:35:38;;;;;;;;;;;;;;;24.86;37.28;99100.16;5094274;28;19951;-38
2021/05/18 10:38:05;;;;;;;;;;;;;;;25.14;37.32;99095.31;5094078;28;19919;-37
2021/05/18 10:40:31;;;;;;;;;;;;;;;25.26;37.23;99090.06;5126534;27;19969;-37
2021/05/18 10:43:06;;;;;;;;;;;;;;;25.21;37.04;99086.66;5094346;28;19915;-38
2021/05/18 10:45:50;;;;;;;;;;;;;;;25.58;35.03;99090.78;5094592;28;19998;-38
2021/05/18 10:48:15;;;;;;;;;;;;;;;25.82;34.49;99090.31;5074080;28;19912;-38
2021/05/18 10:50:41;;;;;;;;;;;;;;;25.83;35.67;99089.19;5074213;28;19973;-38
2021/05/18 10:53:22;;;;;;;;;;;;;;;27.07;32.16;99085.84;5073727;28;19924;-39
2021/05/18 10:56:07;;;;;;;;;;;;;;;26.87;33.43;99103.78;5074048;28;19969;-37
2021/05/18 10:58:32;;;;;;;;;;;;;;;26.37;33.99;99083.38;5073744;28;19913;-37
2021/05/18 11:01:01;;;;;;;;;;;;;;;26.74;32.43;99089.22;5071983;28;19987;-37
2021/05/18 11:03:27;;;;;;;;;;;;;;;26.59;32.21;99062.44;5073771;28;19919;-38
2021/05/18 11:05:53;;;;;;;;;;;;;;;26.49;32.74;99086.22;5073651;28;19912;-38
2021/05/18 11:08:19;;;;;;;;;;;;;;;27.22;32.35;99088.03;5072443;28;20438;-38
2021/05/18 11:10:48;;;;;;;;;;;;;;;27.58;31.39;99091.38;5073358;28;19920;-37
2021/05/18 11:13:14;;;;;;;;;;;;;;;27.07;31.43;99083.94;5073273;28;20402;-37
2021/05/18 11:15:40;;;;;;;;;;;;;;;26.98;31.50;99082.38;5074920;28;19985;-38
2021/05/18 11:18:05;;;;;;;;;;;;;;;27.27;31.73;99079.69;5093694;28;19920;-38
2021/05/18 11:25:51;;;;;;;;;;;;;;;27.80;31.30;99065.66;5093651;28;20267;-37
2021/05/18 11:28:41;;;;;;;;;;;;;;;28.12;30.46;99064.09;5093383;28;20387;-38
2021/05/18 11:31:07;;;;;;;;;;;;;;;27.60;30.99;99061.78;5090726;28;19912;-38
2021/05/18 11:33:33;;;;;;;;;;;;;;;27.40;31.70;99066.13;5093772;28;19916;-39
2021/05/18 11:36:07;;;;;;;;;;;;;;;27.77;31.57;99060.84;5093863;28;19969;-38
2021/05/18 11:38:34;;;;;;;;;;;;;;;28.04;31.34;99076.69;5093364;28;19940;-38
2021/05/18 11:40:59;;;;;;;;;;;;;;;27.08;31.34;99085.53;5093391;28;20393;-38
2021/05/18 11:44:01;;;;;;;;;;;;;;;26.66;31.52;99077.22;5093396;28;20426;-37
2021/05/18 11:46:19;;;;;;;;;;;;;;;27.37;30.88;99078.47;5091060;28;20376;-37
2021/05/18 11:49:00;;;;;;;;;;;;;;;27.67;29.70;99076.50;5093010;28;19995;-38
2021/05/18 11:51:32;;;;;;;;;;;;;;;26.52;28.78;99074.69;5093527;28;19926;-38
2021/05/18 11:54:02;;;;;;;;;;;;;;;25.85;28.80;99088.84;5093148;28;19916;-38
2021/05/18 11:56:28;;;;;;;;;;;;;;;25.56;28.09;99069.28;5092785;28;19999;-37
2021/05/18 11:58:57;;;;;;;;;;;;;;;25.62;28.26;99085.50;5092867;28;20374;-38
2021/05/18 12:01:22;;;;;;;;;;;;;;;25.95;26.97;99074.97;5093031;28;19916;-38
2021/05/18 12:04:01;;;;;;;;;;;;;;;26.70;27.25;99066.44;5092770;28;19932;-38
2021/05/18 12:06:27;;;;;;;;;;;;;;;26.92;26.17;99068.94;5093257;28;19984;-38
2021/05/18 12:08:55;;;;;;;;;;;;;;;26.86;27.29;99062.03;5093152;28;20352;-38
2021/05/18 12:11:21;;;;;;;;;;;;;;;26.76;26.96;99059.69;5093035;28;20259;-38
2021/05/18 12:13:48;;;;;;;;;;;;;;;27.00;26.10;99067.28;5092618;28;19924;-37
2021/05/18 12:16:14;;;;;;;;;;;;;;;26.74;25.50;99061.16;5092232;28;19913;-36
2021/05/18 12:18:40;;;;;;;;;;;;;;;26.72;26.48;99067.72;5092257;28;19918;-37
2021/05/18 12:21:06;;;;;;;;;;;;;;;26.26;26.64;99073.94;5091644;28;20002;-38
2021/05/18 12:23:35;;;;;;;;;;;;;;;26.17;26.33;99070.44;5092489;28;19912;-38
2021/05/18 12:26:10;;;;;;;;;;;;;;;26.12;26.92;99072.22;5090882;28;19912;-38
2021/05/18 12:28:36;;;;;;;;;;;;;;;26.32;26.35;99062.53;5092674;28;19919;-36
2021/05/18 12:31:01;;;;;;;;;;;;;;;25.63;27.22;99062.59;5092264;28;20299;-36
2021/05/18 12:33:33;;;;;;;;;;;;;;;25.86;26.74;99063.22;5092289;28;19923;-38
2021/05/18 12:36:02;;;;;;;;;;;;;;;26.78;26.30;99051.97;5092440;28;19911;-38
2021/05/18 12:38:28;;;;;;;;;;;;;;;26.99;25.60;99060.22;5092095;28;20439;-40
2021/05/18 12:41:03;;;;;;;;;;;;;;;26.81;25.92;99055.97;5090649;28;20099;-36
2021/05/18 12:43:38;;;;;;;;;;;;;;;27.16;25.31;99045.66;5090460;28;20422;-38
2021/05/18 12:46:07;;;;;;;;;;;;;;;26.60;24.91;99061.34;5092298;28;20018;-38
2021/05/18 12:48:36;;;;;;;;;;;;;;;26.46;25.60;99045.94;5091976;28;19912;-38
2021/05/18 12:51:02;;;;;;;;;;;;;;;26.78;25.72;99035.59;5092056;28;20005;-38
2021/05/18 12:53:27;;;;;;;;;;;;;;;26.66;26.13;99040.97;5090523;28;19917;-38
2021/05/18 12:55:53;;;;;;;;;;;;;;;26.69;25.67;99045.75;5091159;28;20016;-37
2021/05/18 12:58:34;;;;;;;;;;;;;;;26.74;25.38;99042.03;5084280;28;19912;-37
2021/05/18 13:01:05;;;;;;;;;;;;;;;26.06;25.81;99042.69;5078866;28;19916;-39
2021/05/18 13:03:31;;;;;;;;;;;;;;;26.23;24.98;99030.97;5070918;28;19935;-38
2021/05/18 13:05:57;;;;;;;;;;;;;;;26.10;25.23;99033.56;5088226;28;20260;-38
2021/05/18 13:08:22;;;;;;;;;;;;;;;26.74;25.45;99037.38;5091550;28;19916;-38
2021/05/18 13:13:40;;;;;;;;;;;;;;;26.30;24.85;99034.78;5084629;28;19932;-36
2021/05/18 13:16:07;;;;;;;;;;;;;;;26.07;24.80;99027.97;5090786;28;20304;-38
2021/05/18 13:18:32;;;;;;;;;;;;;;;25.66;25.02;99024.59;5091343;28;19916;-38
2021/05/18 13:20:58;;;;;;;;;;;;;;;25.76;24.80;99039.84;5089777;28;20010;-38
2021/05/18 13:23:32;;;;;;;;;;;;;;;25.60;24.71;99020.44;5091159;28;19966;-38
2021/05/18 13:28:41;;;;;;;;;;;;;;;26.13;24.81;99040.28;5091424;28;19923;-36
2021/05/18 13:31:06;;;;;;;;;;;;;;;26.33;24.08;99044.22;5090562;28;20310;-37
2021/05/18 13:33:31;;;;;;;;;;;;;;;26.13;24.75;99032.09;5091122;28;19927;-37
2021/05/18 13:35:57;;;;;;;;;;;;;;;26.29;24.86;99032.38;5091102;28;19948;-39
2021/05/18 13:38:22;;;;;;;;;;;;;;;26.07;25.20;99042.38;5090910;28;19925;-39
2021/05/18 13:40:48;;;;;;;;;;;;;;;25.83;24.95;99053.75;5090144;28;19912;-38
2021/05/18 13:43:13;;;;;;;;;;;;;;;25.77;25.22;99046.88;5090940;28;19912;-37
2021/05/18 13:45:38;;;;;;;;;;;;;;;25.72;24.39;99044.28;5090965;28;19999;-48
2021/05/18 13:48:05;;;;;;;;;;;;;;;25.54;24.64;99048.97;5110400;28;19912;-51
2021/05/18 13:50:31;;;;;;;;;;;;;;;25.62;25.43;99041.91;5111353;28;19918;-48
2021/05/18 13:52:56;;;;;;;;;;;;;;;25.32;24.61;99042.53;5111417;28;19912;-53
2021/05/18 13:55:22;;;;;;;;;;;;;;;25.42;24.74;99046.03;5111165;28;19938;-48
2021/05/18 13:57:47;;;;;;;;;;;;;;;25.51;23.83;99030.53;5110852;28;19953;-51
2021/05/18 14:00:14;;;;;;;;;;;;;;;25.26;24.09;99049.22;5111048;28;19972;-51
2021/05/18 14:02:41;;;;;;;;;;;;;;;25.36;23.63;99053.59;5110834;28;19938;-50
2021/05/18 14:05:06;;;;;;;;;;;;;;;24.95;24.05;99039.22;5111046;28;19938;-50
2021/05/18 14:08:03;;;;;;;;;;;;;;;24.99;23.44;99020.34;5114013;28;20263;-51
2021/05/18 14:10:29;;;;;;;;;;;;;;;25.07;23.83;99029.63;5114641;28;19912;-49
2021/05/18 14:12:54;;;;;;;;;;;;;;;25.08;23.78;99044.88;5114678;28;19976;-50
2021/05/18 14:15:19;;;;;;;;;;;;;;;24.68;24.40;99034.03;5114694;28;20323;-51
2021/05/18 14:17:45;;;;;;;;;;;;;;;24.44;24.85;99045.22;5114453;28;20446;-50
2021/05/18 14:20:10;;;;;;;;;;;;;;;24.59;24.84;99051.09;5114864;28;19973;-52
2021/05/18 14:22:36;;;;;;;;;;;;;;;24.54;25.56;99045.81;5114432;28;20298;-51
2021/05/18 14:27:29;;;;;;;;;;;;;;;24.27;25.21;99044.00;5114325;28;19912;-50
2021/05/18 14:29:54;;;;;;;;;;;;;;;24.29;24.99;99032.84;5114476;28;19946;-52
2021/05/18 14:32:19;;;;;;;;;;;;;;;24.63;25.23;99053.19;5114565;28;20054;-51
2021/05/18 14:34:45;;;;;;;;;;;;;;;24.53;24.78;99054.28;5114862;28;20011;-50
2021/05/18 14:37:10;;;;;;;;;;;;;;;24.56;24.84;99053.63;5114401;28;19919;-51
2021/05/18 14:40:04;;;;;;;;;;;;;;;24.84;24.97;99059.66;5114549;28;19912;-52
2021/05/18 14:45:06;;;;;;;;;;;;;;;24.62;25.88;99062.44;5094269;28;19919;-49
2021/05/18 14:47:45;;;;;;;;;;;;;;;24.48;26.27;99057.09;5109113;28;20333;-52
2021/05/18 14:55:39;;;;;;;;;;;;;;;24.37;26.42;99067.44;5114754;28;19991;-50
2021/05/18 14:58:04;;;;;;;;;;;;;;;24.63;26.18;99070.31;5113971;28;20378;-51
2021/05/18 15:00:29;;;;;;;;;;;;;;;23.96;26.27;99054.88;5114101;28;19912;-48
2021/05/18 15:02:54;;;;;;;;;;;;;;;24.50;25.83;99066.56;5099473;28;19920;-51
2021/05/18 15:05:20;;;;;;;;;;;;;;;24.14;26.25;99077.50;5076118;28;19927;-48
2021/05/18 15:07:46;;;;;;;;;;;;;;;24.30;26.12;99083.38;5093744;28;19948;-48
2021/05/18 15:10:11;;;;;;;;;;;;;;;24.30;26.35;99084.19;5090992;28;19935;-48
2021/05/18 15:12:36;;;;;;;;;;;;;;;24.23;26.17;99086.53;5073433;28;20007;-50
2021/05/18 15:15:02;;;;;;;;;;;;;;;24.36;25.40;99072.06;5082305;28;20394;-52
2021/05/18 15:17:27;;;;;;;;;;;;;;;24.08;25.20;99068.69;5093160;28;19916;-51
2021/05/18 15:19:53;;;;;;;;;;;;;;;23.88;25.42;99064.56;5093421;28;20332;-50
2021/05/18 15:22:19;;;;;;;;;;;;;;;23.97;25.04;99081.72;5093198;28;20340;-51
2021/05/18 15:24:44;;;;;;;;;;;;;;;23.78;25.16;99073.75;5093255;28;19955;-51
2021/05/18 15:27:10;;;;;;;;;;;;;;;23.90;25.11;99072.41;5092902;28;19999;-50
2021/05/18 15:29:35;;;;;;;;;;;;;;;23.79;25.50;99078.06;5093016;28;20002;-49
2021/05/18 15:32:01;;;;;;;;;;;;;;;23.68;25.91;99073.94;5092991;28;19915;-49
2021/05/18 15:34:27;;;;;;;;;;;;;;;23.42;26.40;99082.66;5092934;28;20000;-50
2021/05/18 15:36:52;;;;;;;;;;;;;;;23.77;25.80;99085.69;5093005;28;19919;-49
2021/05/18 15:39:17;;;;;;;;;;;;;;;23.92;25.51;99083.75;5125690;27;19912;-52
2021/05/18 15:41:43;;;;;;;;;;;;;;;23.87;25.65;99092.81;5092678;28;19938;-51
2021/05/18 15:44:08;;;;;;;;;;;;;;;23.61;25.78;99100.75;5092888;28;20356;-51
2021/05/18 15:46:33;;;;;;;;;;;;;;;23.67;26.08;99096.00;5099494;28;19911;-49
2021/05/18 15:48:59;;;;;;;;;;;;;;;23.59;26.02;99089.38;5113135;28;19912;-48
2021/05/18 15:51:24;;;;;;;;;;;;;;;23.82;25.67;99090.25;5112559;28;19912;-48
2021/05/18 15:53:49;;;;;;;;;;;;;;;23.78;25.89;99109.06;5082225;28;19921;-50
2021/05/18 15:56:15;;;;;;;;;;;;;;;23.62;26.09;99096.91;5072426;28;19962;-51
2021/05/18 15:58:40;;;;;;;;;;;;;;;23.43;26.74;99094.31;5073331;28;19916;-48
2021/05/18 16:01:05;;;;;;;;;;;;;;;23.86;26.61;99104.03;5092486;28;19962;-49
2021/05/18 16:03:31;;;;;;;;;;;;;;;23.90;26.97;99097.66;5092000;28;20315;-50
2021/05/18 16:05:59;;;;;;;;;;;;;;;24.33;26.47;99104.50;5072739;28;20531;-49
2021/05/18 16:10:57;;;;;;;;;;;;;;;23.83;26.89;99099.19;5081516;28;20003;-50
2021/05/18 16:13:22;;;;;;;;;;;;;;;23.66;26.76;99089.75;5081280;28;20276;-50
2021/05/18 16:15:47;;;;;;;;;;;;;;;23.69;26.96;99085.63;5092151;28;19919;-49
2021/05/18 16:18:13;;;;;;;;;;;;;;;23.35;27.04;99098.56;5091809;28;20323;-51
2021/05/18 16:20:38;;;;;;;;;;;;;;;22.93;27.50;99092.31;5092175;28;19939;-49
2021/05/18 16:23:05;;;;;;;;;;;;;;;23.36;27.51;99100.19;5091671;28;20364;-49
2021/05/18 16:25:30;;;;;;;;;;;;;;;23.08;27.48;99085.03;5091626;28;20006;-50
2021/05/18 16:27:55;;;;;;;;;;;;;;;23.01;27.27;99097.03;5091551;28;19966;-49
2021/05/18 16:30:20;;;;;;;;;;;;;;;22.75;27.72;99095.91;5090828;28;19977;-37
2021/05/18 16:32:46;;;;;;;;;;;;;;;22.71;27.94;99101.13;5091539;28;19918;-37
2021/05/18 16:35:12;;;;;;;;;;;;;;;22.63;28.02;99105.34;5091839;28;19916;-49
2021/05/18 16:37:38;;;;;;;;;;;;;;;22.67;27.86;99100.13;5092265;28;19912;-50
2021/05/18 16:40:03;;;;;;;;;;;;;;;22.61;28.12;99106.75;5091753;28;19912;-49
2021/05/18 16:42:28;;;;;;;;;;;;;;;22.85;27.41;99109.31;5091654;28;19920;-49
2021/05/18 16:44:54;;;;;;;;;;;;;;;22.66;27.52;99103.97;5091256;28;20295;-49
2021/05/18 16:47:19;;;;;;;;;;;;;;;22.63;28.03;99104.53;5102516;28;19971;-46
2021/05/18 16:49:45;;;;;;;;;;;;;;;22.51;27.77;99096.91;5106560;28;19924;-48
2021/05/18 16:52:11;;;;;;;;;;;;;;;22.55;27.63;99107.94;5079929;28;19980;-38
2021/05/18 16:54:36;;;;;;;;;;;;;;;22.47;28.11;99109.44;5091289;28;20328;-38
2021/05/18 16:57:01;;;;;;;;;;;;;;;22.67;28.15;99110.97;5089347;28;19922;-38
2021/05/18 16:59:26;;;;;;;;;;;;;;;22.46;28.12;99121.38;5071287;28;19917;-36
2021/05/18 17:01:52;;;;;;;;;;;;;;;22.75;27.96;99118.44;5069303;28;19913;-37
2021/05/18 17:04:17;;;;;;;;;;;;;;;22.71;28.44;99116.59;5071098;28;19912;-38
2021/05/18 17:06:43;;;;;;;;;;;;;;;22.61;30.49;99126.53;5078186;28;19912;-37
2021/05/18 17:09:08;;;;;;;;;;;;;;;22.91;28.20;99123.56;5091315;28;19912;-38
2021/05/18 17:11:34;;;;;;;;;;;;;;;22.63;28.23;99118.09;5091193;28;20338;-38
2021/05/18 17:14:00;;;;;;;;;;;;;;;22.64;28.09;99120.50;5090209;28;19924;-38
2021/05/18 17:16:25;;;;;;;;;;;;;;;22.84;28.53;99129.38;5089749;28;19950;-36
2021/05/18 17:18:50;;;;;;;;;;;;;;;22.46;28.35;99121.38;5090774;28;20387;-37
2021/05/18 17:21:16;;;;;;;;;;;;;;;22.40;28.06;99128.78;5091104;28;19912;-37
2021/05/18 17:23:41;;;;;;;;;;;;;;;22.56;28.03;99118.50;5091066;28;20006;-37
2021/05/18 17:26:11;;;;;;;;;;;;;;;22.67;27.96;99123.72;5091387;28;19954;-37
2021/05/18 17:28:38;;;;;;;;;;;;;;;22.30;28.69;99128.16;5091195;28;19961;-37
2021/05/18 17:31:03;;;;;;;;;;;;;;;22.14;28.33;99122.97;5097584;28;19916;-37
2021/05/18 17:33:31;;;;;;;;;;;;;;;22.39;28.04;99126.38;5094276;28;20411;-37
2021/05/18 17:35:56;;;;;;;;;;;;;;;22.57;28.08;99127.44;5107268;28;19923;-36
2021/05/18 17:38:21;;;;;;;;;;;;;;;22.56;29.24;99132.06;5105713;28;19916;-37
2021/05/18 17:40:47;;;;;;;;;;;;;;;22.71;30.57;99116.59;5111599;28;20299;-36
2021/05/18 17:43:14;;;;;;;;;;;;;;;22.64;28.02;99134.06;5115696;28;19916;-37
2021/05/18 17:45:39;;;;;;;;;;;;;;;23.00;28.11;99132.63;5115666;28;19912;-36
2021/05/18 17:48:07;;;;;;;;;;;;;;;23.00;29.90;99138.84;5098747;28;19926;-35
2021/05/18 17:50:32;;;;;;;;;;;;;;;22.96;29.24;99137.84;5095179;28;19927;-36
2021/05/18 17:52:58;;;;;;;;;;;;;;;23.34;28.31;99140.41;5095045;28;19912;-36
2021/05/18 17:55:23;;;;;;;;;;;;;;;23.69;26.96;99142.66;5095015;28;19912;-37
2021/05/18 17:57:48;;;;;;;;;;;;;;;23.29;27.46;99150.56;5095079;28;19915;-37